createdAt,value
2018-06-29T00:00:32.360Z,73.49
2018-06-29T00:01:32.294Z,73.68
2018-06-29T00:02:32.245Z,73.39
2018-06-29T00:03:32.177Z,73.39
2018-06-29T00:04:32.123Z,73.49
2018-06-29T00:05:32.063Z,73.39
2018-06-29T00:06:31.998Z,73.39
2018-06-29T00:07:31.950Z,73.68
2018-06-29T00:08:31.880Z,73.58
2018-06-29T00:09:31.825Z,73.78
2018-06-29T00:10:31.768Z,73.49
2018-06-29T00:11:31.707Z,73.78
2018-06-29T00:12:31.645Z,73.74
2018-06-29T00:13:31.585Z,74.03
2018-06-29T00:14:31.542Z,74.03
2018-06-29T00:15:31.471Z,74.22
2018-06-29T00:16:31.437Z,74.22
2018-06-29T00:17:31.554Z,73.94
2018-06-29T00:18:31.303Z,74.80
2018-06-29T00:19:31.237Z,74.22
2018-06-29T00:20:31.187Z,74.32
2018-06-29T00:21:31.114Z,74.32
2018-06-29T00:22:31.060Z,75.09
2018-06-29T00:23:31.086Z,74.80
2018-06-29T00:24:30.942Z,74.90
2018-06-29T00:25:30.880Z,74.96
2018-06-29T00:26:30.822Z,74.76
2018-06-29T00:27:30.759Z,74.76
2018-06-29T00:28:30.707Z,75.34
2018-06-29T00:29:30.643Z,75.15
2018-06-29T00:30:30.581Z,74.96
2018-06-29T00:31:30.526Z,74.76
2018-06-29T00:32:30.462Z,74.29
2018-06-29T00:33:30.413Z,74.76
2018-06-29T00:34:30.348Z,75.34
2018-06-29T00:35:30.290Z,74.86
2018-06-29T00:36:30.229Z,75.24
2018-06-29T00:37:30.172Z,75.24
2018-06-29T00:38:30.108Z,75.34
2018-06-29T00:39:30.048Z,75.05
2018-06-29T00:40:29.988Z,75.15
2018-06-29T00:41:29.942Z,76.01
2018-06-29T00:42:29.890Z,75.73
2018-06-29T00:43:29.821Z,75.73
2018-06-29T00:44:29.753Z,75.73
2018-06-29T00:45:29.704Z,75.44
2018-06-29T00:46:29.637Z,75.82
2018-06-29T00:47:29.578Z,75.92
2018-06-29T00:48:29.521Z,75.92
2018-06-29T00:49:29.464Z,75.92
2018-06-29T00:50:29.401Z,75.88
2018-06-29T00:51:29.336Z,75.82
2018-06-29T00:52:29.280Z,75.82
2018-06-29T00:53:29.221Z,76.01
2018-06-29T00:54:29.223Z,75.82
2018-06-29T00:55:29.103Z,75.92
2018-06-29T00:56:29.043Z,75.73
2018-06-29T00:57:28.985Z,76.11
2018-06-29T00:58:28.925Z,75.88
2018-06-29T00:59:28.860Z,75.82
2018-06-29T01:00:28.816Z,75.73
2018-06-29T01:01:28.756Z,75.73
2018-06-29T01:02:28.687Z,76.07
2018-06-29T01:03:28.628Z,76.01
2018-06-29T01:04:28.569Z,75.73
2018-06-29T01:05:28.514Z,75.82
2018-06-29T01:06:28.451Z,75.63
2018-06-29T01:07:28.397Z,75.73
2018-06-29T01:08:28.334Z,76.07
2018-06-29T01:09:28.268Z,76.40
2018-06-29T01:10:28.210Z,76.46
2018-06-29T01:11:28.150Z,76.65
2018-06-29T01:12:28.090Z,76.46
2018-06-29T01:13:28.027Z,76.46
2018-06-29T01:14:27.974Z,76.40
2018-06-29T01:15:27.915Z,76.36
2018-06-29T01:16:27.851Z,76.50
2018-06-29T01:17:27.792Z,76.17
2018-06-29T01:18:27.738Z,76.40
2018-06-29T01:19:27.674Z,76.31
2018-06-29T01:20:27.617Z,76.17
2018-06-29T01:21:27.616Z,76.36
2018-06-29T01:22:27.492Z,76.26
2018-06-29T01:23:27.440Z,76.17
2018-06-29T01:24:27.375Z,76.36
2018-06-29T01:25:27.316Z,76.65
2018-06-29T01:26:27.260Z,76.65
2018-06-29T01:27:27.204Z,76.26
2018-06-29T01:28:27.141Z,76.31
2018-06-29T01:29:27.080Z,76.17
2018-06-29T01:30:27.027Z,76.69
2018-06-29T01:31:26.963Z,75.82
2018-06-29T01:32:26.899Z,76.11
2018-06-29T01:33:26.840Z,75.73
2018-06-29T01:34:26.782Z,76.36
2018-06-29T01:35:26.724Z,75.88
2018-06-29T01:36:26.656Z,76.65
2018-06-29T01:37:26.601Z,76.46
2018-06-29T01:38:26.542Z,76.17
2018-06-29T01:39:26.483Z,76.36
2018-06-29T01:40:26.423Z,76.36
2018-06-29T01:41:26.422Z,76.84
2018-06-29T01:42:26.299Z,76.65
2018-06-29T01:43:26.242Z,76.65
2018-06-29T01:44:26.185Z,76.46
2018-06-29T01:45:26.117Z,76.84
2018-06-29T01:46:26.070Z,76.84
2018-06-29T01:47:26.020Z,76.65
2018-06-29T01:48:25.943Z,76.94
2018-06-29T01:49:25.888Z,76.56
2018-06-29T01:50:25.833Z,77.23
2018-06-29T01:51:25.768Z,77.04
2018-06-29T01:52:25.704Z,77.00
2018-06-29T01:53:25.648Z,77.48
2018-06-29T01:54:25.588Z,77.48
2018-06-29T01:55:25.523Z,77.58
2018-06-29T01:56:25.470Z,77.19
2018-06-29T01:57:25.402Z,77.48
2018-06-29T01:58:25.351Z,77.38
2018-06-29T01:59:25.285Z,77.19
2018-06-29T02:00:25.226Z,77.38
2018-06-29T02:01:25.165Z,77.61
2018-06-29T02:02:25.105Z,77.23
2018-06-29T02:03:25.046Z,77.61
2018-06-29T02:04:24.986Z,77.67
2018-06-29T02:05:24.932Z,77.48
2018-06-29T02:06:24.867Z,77.58
2018-06-29T02:07:24.804Z,77.67
2018-06-29T02:08:24.747Z,77.38
2018-06-29T02:09:24.685Z,77.00
2018-06-29T02:10:24.624Z,77.09
2018-06-29T02:11:24.568Z,77.38
2018-06-29T02:12:24.509Z,77.19
2018-06-29T02:13:24.453Z,77.38
2018-06-29T02:14:24.385Z,77.38
2018-06-29T02:15:24.340Z,77.29
2018-06-29T02:16:24.270Z,77.19
2018-06-29T02:17:24.206Z,77.67
2018-06-29T02:18:24.155Z,77.58
2018-06-29T02:19:24.088Z,77.58
2018-06-29T02:20:24.030Z,78.15
2018-06-29T02:21:23.965Z,77.38
2018-06-29T02:22:23.913Z,77.76
2018-06-29T02:23:23.850Z,77.19
2018-06-29T02:24:23.787Z,77.86
2018-06-29T02:25:23.752Z,78.06
2018-06-29T02:26:23.667Z,78.15
2018-06-29T02:27:23.604Z,78.21
2018-06-29T02:28:23.542Z,78.11
2018-06-29T02:29:23.485Z,78.06
2018-06-29T02:30:23.492Z,78.21
2018-06-29T02:31:23.374Z,78.34
2018-06-29T02:32:23.306Z,78.59
2018-06-29T02:33:23.247Z,78.40
2018-06-29T02:34:23.184Z,78.40
2018-06-29T02:35:23.125Z,78.11
2018-06-29T02:36:23.064Z,78.59
2018-06-29T02:37:23.004Z,78.59
2018-06-29T02:38:22.944Z,78.69
2018-06-29T02:39:22.892Z,78.59
2018-06-29T02:40:22.821Z,79.07
2018-06-29T02:41:22.772Z,78.88
2018-06-29T02:42:22.714Z,78.88
2018-06-29T02:43:22.642Z,78.98
2018-06-29T02:44:22.589Z,78.69
2018-06-29T02:45:22.528Z,79.27
2018-06-29T02:46:22.463Z,79.36
2018-06-29T02:47:22.414Z,78.98
2018-06-29T02:48:22.347Z,79.55
2018-06-29T02:49:22.284Z,79.52
2018-06-29T02:50:22.229Z,79.65
2018-06-29T02:51:22.169Z,79.55
2018-06-29T02:52:22.107Z,79.46
2018-06-29T02:53:22.044Z,79.55
2018-06-29T02:54:21.984Z,79.46
2018-06-29T02:55:21.929Z,79.61
2018-06-29T02:56:21.862Z,79.90
2018-06-29T02:57:21.801Z,79.61
2018-06-29T02:58:21.744Z,79.75
2018-06-29T02:59:21.679Z,79.94
2018-06-29T03:00:21.618Z,80.57
2018-06-29T03:01:21.559Z,80.19
2018-06-29T03:02:21.506Z,80.28
2018-06-29T03:03:21.440Z,80.47
2018-06-29T03:04:21.383Z,80.19
2018-06-29T03:05:21.322Z,80.28
2018-06-29T03:06:21.256Z,80.76
2018-06-29T03:07:21.196Z,80.86
2018-06-29T03:08:21.140Z,80.66
2018-06-29T03:09:21.082Z,80.66
2018-06-29T03:10:21.018Z,80.57
2018-06-29T03:11:20.954Z,80.57
2018-06-29T03:12:20.895Z,80.66
2018-06-29T03:13:20.829Z,80.57
2018-06-29T03:14:20.783Z,80.38
2018-06-29T03:15:20.716Z,81.34
2018-06-29T03:16:20.654Z,81.43
2018-06-29T03:17:20.607Z,81.34
2018-06-29T03:18:20.531Z,81.15
2018-06-29T03:19:20.474Z,81.24
2018-06-29T03:20:20.420Z,81.15
2018-06-29T03:21:20.350Z,81.34
2018-06-29T03:22:20.294Z,81.24
2018-06-29T03:23:20.237Z,81.15
2018-06-29T03:24:20.167Z,81.34
2018-06-29T03:25:20.157Z,81.15
2018-06-29T03:26:20.057Z,80.96
2018-06-29T03:27:19.987Z,81.34
2018-06-29T03:28:19.933Z,81.34
2018-06-29T03:29:19.877Z,81.53
2018-06-29T03:30:19.803Z,81.53
2018-06-29T03:31:19.760Z,81.43
2018-06-29T03:32:19.688Z,81.24
2018-06-29T03:33:19.626Z,81.34
2018-06-29T03:34:19.566Z,81.63
2018-06-29T03:35:19.507Z,81.24
2018-06-29T03:36:19.447Z,80.96
2018-06-29T03:37:19.391Z,81.05
2018-06-29T03:38:19.323Z,82.01
2018-06-29T03:39:19.272Z,81.53
2018-06-29T03:40:19.262Z,81.63
2018-06-29T03:41:19.145Z,81.34
2018-06-29T03:42:19.084Z,81.05
2018-06-29T03:43:19.022Z,82.01
2018-06-29T03:44:18.961Z,81.34
2018-06-29T03:45:18.902Z,81.92
2018-06-29T03:46:18.844Z,81.05
2018-06-29T03:47:18.782Z,81.15
2018-06-29T03:48:18.718Z,81.24
2018-06-29T03:49:18.659Z,81.24
2018-06-29T03:50:18.598Z,81.24
2018-06-29T03:51:18.535Z,82.01
2018-06-29T03:52:18.472Z,81.72
2018-06-29T03:53:18.415Z,81.34
2018-06-29T03:54:18.357Z,81.05
2018-06-29T03:55:18.304Z,80.96
2018-06-29T03:56:18.234Z,81.72
2018-06-29T03:57:18.175Z,81.24
2018-06-29T03:58:18.120Z,81.92
2018-06-29T03:59:18.055Z,81.82
2018-06-29T04:00:17.994Z,81.82
2018-06-29T04:01:17.937Z,81.53
2018-06-29T04:02:17.875Z,81.53
2018-06-29T04:03:17.867Z,81.53
2018-06-29T04:04:17.747Z,81.24
2018-06-29T04:05:17.690Z,81.43
2018-06-29T04:06:17.631Z,81.43
2018-06-29T04:07:17.571Z,81.53
2018-06-29T04:08:17.511Z,81.67
2018-06-29T04:09:17.450Z,80.76
2018-06-29T04:10:17.381Z,81.48
2018-06-29T04:11:17.325Z,81.09
2018-06-29T04:12:17.285Z,81.38
2018-06-29T04:13:17.216Z,81.19
2018-06-29T04:14:17.142Z,81.57
2018-06-29T04:15:17.085Z,81.28
2018-06-29T04:16:17.036Z,81.15
2018-06-29T04:17:16.964Z,81.48
2018-06-29T04:18:16.910Z,81.48
2018-06-29T04:19:16.849Z,80.61
2018-06-29T04:20:16.804Z,80.47
2018-06-29T04:21:16.729Z,80.61
2018-06-29T04:22:16.666Z,81.53
2018-06-29T04:23:16.603Z,81.24
2018-06-29T04:24:16.562Z,80.42
2018-06-29T04:25:16.482Z,80.42
2018-06-29T04:26:16.431Z,80.51
2018-06-29T04:27:16.362Z,80.38
2018-06-29T04:28:16.304Z,80.71
2018-06-29T04:29:16.245Z,80.51
2018-06-29T04:30:16.194Z,81.38
2018-06-29T04:31:16.126Z,81.67
2018-06-29T04:32:16.065Z,80.71
2018-06-29T04:33:15.998Z,80.32
2018-06-29T04:34:15.943Z,80.51
2018-06-29T04:35:15.877Z,80.61
2018-06-29T04:36:15.824Z,80.61
2018-06-29T04:37:15.757Z,80.80
2018-06-29T04:38:15.700Z,80.90
2018-06-29T04:39:15.640Z,80.71
2018-06-29T04:40:15.577Z,80.75
2018-06-29T04:41:15.517Z,80.27
2018-06-29T04:42:15.455Z,80.36
2018-06-29T04:43:15.395Z,80.17
2018-06-29T04:44:15.333Z,80.27
2018-06-29T04:45:15.277Z,80.36
2018-06-29T04:46:15.219Z,80.27
2018-06-29T04:47:15.164Z,80.36
2018-06-29T04:48:15.096Z,80.60
2018-06-29T04:49:15.053Z,79.63
2018-06-29T04:50:14.975Z,80.40
2018-06-29T04:51:14.915Z,80.30
2018-06-29T04:52:14.858Z,80.07
2018-06-29T04:53:14.813Z,79.98
2018-06-29T04:54:14.734Z,80.55
2018-06-29T04:55:14.668Z,80.11
2018-06-29T04:56:14.614Z,79.88
2018-06-29T04:57:14.550Z,80.30
2018-06-29T04:58:14.500Z,80.30
2018-06-29T04:59:14.447Z,80.30
2018-06-29T05:00:14.373Z,79.73
2018-06-29T05:01:14.312Z,80.21
2018-06-29T05:02:14.264Z,79.92
2018-06-29T05:03:14.197Z,80.02
2018-06-29T05:04:14.134Z,79.82
2018-06-29T05:05:14.079Z,79.53
2018-06-29T05:06:14.015Z,79.35
2018-06-29T05:07:13.951Z,79.67
2018-06-29T05:08:13.904Z,79.28
2018-06-29T05:09:13.833Z,78.90
2018-06-29T05:10:13.775Z,78.65
2018-06-29T05:11:13.717Z,78.56
2018-06-29T05:12:13.655Z,77.53
2018-06-29T05:13:13.595Z,76.80
2018-06-29T05:14:13.534Z,76.71
2018-06-29T05:15:13.477Z,76.80
2018-06-29T05:16:13.413Z,76.80
2018-06-29T05:17:13.358Z,76.71
2018-06-29T05:18:13.297Z,76.80
2018-06-29T05:19:13.233Z,75.93
2018-06-29T05:20:13.177Z,75.88
2018-06-29T05:21:13.116Z,75.84
2018-06-29T05:22:13.059Z,75.84
2018-06-29T05:23:13.000Z,75.97
2018-06-29T05:24:12.938Z,74.51
2018-06-29T05:25:13.448Z,71.97
2018-06-29T05:26:12.821Z,70.84
2018-06-29T05:27:12.760Z,70.84
2018-06-29T05:28:12.703Z,71.10
2018-06-29T05:29:12.644Z,72.86
2018-06-29T05:30:12.587Z,73.69
2018-06-29T05:31:12.527Z,75.20
2018-06-29T05:32:12.466Z,75.55
2018-06-29T05:33:12.409Z,76.03
2018-06-29T05:34:12.352Z,76.18
2018-06-29T05:35:12.292Z,76.38
2018-06-29T05:36:12.233Z,76.57
2018-06-29T05:37:12.175Z,76.38
2018-06-29T05:38:12.110Z,76.96
2018-06-29T05:39:12.056Z,76.92
2018-06-29T05:40:12.005Z,76.76
2018-06-29T05:41:11.932Z,76.38
2018-06-29T05:42:11.883Z,76.28
2018-06-29T05:43:11.819Z,76.38
2018-06-29T05:44:11.760Z,76.38
2018-06-29T05:45:11.703Z,76.57
2018-06-29T05:46:11.680Z,76.18
2018-06-29T05:47:11.584Z,76.86
2018-06-29T05:48:11.526Z,76.42
2018-06-29T05:49:11.532Z,76.03
2018-06-29T05:50:11.404Z,75.99
2018-06-29T05:51:11.348Z,75.84
2018-06-29T05:52:11.288Z,75.93
2018-06-29T05:53:11.231Z,75.84
2018-06-29T05:54:11.172Z,75.93
2018-06-29T05:55:11.113Z,75.93
2018-06-29T05:56:11.056Z,76.03
2018-06-29T05:57:10.992Z,76.13
2018-06-29T05:58:10.934Z,76.13
2018-06-29T05:59:10.876Z,76.23
2018-06-29T06:00:10.821Z,76.03
2018-06-29T06:01:10.758Z,76.03
2018-06-29T06:02:11.523Z,75.93
2018-06-29T06:03:10.648Z,75.93
2018-06-29T06:04:10.579Z,75.36
2018-06-29T06:05:10.522Z,75.36
2018-06-29T06:06:10.464Z,75.36
2018-06-29T06:07:10.407Z,75.55
2018-06-29T06:08:10.355Z,75.07
2018-06-29T06:09:10.288Z,75.68
2018-06-29T06:10:10.282Z,75.49
2018-06-29T06:11:10.169Z,75.30
2018-06-29T06:12:10.106Z,75.68
2018-06-29T06:13:10.053Z,75.30
2018-06-29T06:14:09.994Z,75.10
2018-06-29T06:15:09.938Z,75.34
2018-06-29T06:16:09.919Z,74.76
2018-06-29T06:17:10.021Z,74.37
2018-06-29T06:18:09.762Z,74.76
2018-06-29T06:19:09.704Z,75.05
2018-06-29T06:20:09.698Z,74.57
2018-06-29T06:21:09.593Z,74.27
2018-06-29T06:22:09.528Z,74.37
2018-06-29T06:23:09.467Z,74.08
2018-06-29T06:24:09.410Z,73.79
2018-06-29T06:25:09.356Z,73.41
2018-06-29T06:26:09.295Z,73.89
2018-06-29T06:27:09.238Z,73.73
2018-06-29T06:28:09.181Z,73.73
2018-06-29T06:29:09.119Z,73.35
2018-06-29T06:30:09.063Z,73.15
2018-06-29T06:31:09.002Z,73.44
2018-06-29T06:32:08.951Z,73.15
2018-06-29T06:33:08.898Z,72.96
2018-06-29T06:34:08.831Z,73.54
2018-06-29T06:35:08.783Z,72.86
2018-06-29T06:36:08.713Z,72.86
2018-06-29T06:37:08.653Z,72.80
2018-06-29T06:38:08.597Z,72.13
2018-06-29T06:39:08.541Z,72.13
2018-06-29T06:40:08.484Z,71.94
2018-06-29T06:41:08.427Z,72.13
2018-06-29T06:42:08.365Z,72.52
2018-06-29T06:43:08.308Z,71.84
2018-06-29T06:44:08.256Z,71.84
2018-06-29T06:45:08.190Z,71.39
2018-06-29T06:46:08.135Z,71.16
2018-06-29T06:47:08.080Z,71.39
2018-06-29T06:48:08.020Z,71.45
2018-06-29T06:49:07.969Z,71.45
2018-06-29T06:50:07.905Z,71.45
2018-06-29T06:51:07.845Z,71.39
2018-06-29T06:52:07.794Z,71.00
2018-06-29T06:53:07.750Z,70.81
2018-06-29T06:54:07.670Z,70.62
2018-06-29T06:55:07.617Z,70.62
2018-06-29T06:56:07.557Z,70.23
2018-06-29T06:57:07.499Z,70.14
2018-06-29T06:58:07.445Z,70.14
2018-06-29T06:59:07.392Z,70.14
2018-06-29T07:00:07.334Z,69.94
2018-06-29T07:01:07.272Z,69.46
2018-06-29T07:02:07.211Z,70.14
2018-06-29T07:03:07.191Z,69.65
2018-06-29T07:04:07.104Z,69.74
2018-06-29T07:05:07.040Z,69.68
2018-06-29T07:06:06.985Z,69.20
2018-06-29T07:07:06.929Z,69.01
2018-06-29T07:08:06.886Z,69.59
2018-06-29T07:09:06.811Z,68.62
2018-06-29T07:10:06.765Z,68.72
2018-06-29T07:11:06.703Z,68.52
2018-06-29T07:12:06.639Z,68.91
2018-06-29T07:13:06.587Z,69.10
2018-06-29T07:14:06.527Z,68.62
2018-06-29T07:15:06.470Z,68.24
2018-06-29T07:16:06.407Z,68.52
2018-06-29T07:17:06.355Z,68.82
2018-06-29T07:18:06.312Z,68.52
2018-06-29T07:19:06.245Z,68.43
2018-06-29T07:20:06.191Z,67.98
2018-06-29T07:21:06.128Z,67.88
2018-06-29T07:22:06.068Z,67.98
2018-06-29T07:23:06.012Z,68.08
2018-06-29T07:24:05.957Z,68.17
2018-06-29T07:25:05.900Z,68.27
2018-06-29T07:26:05.849Z,67.88
2018-06-29T07:27:05.788Z,67.49
2018-06-29T07:28:05.722Z,67.69
2018-06-29T07:29:05.683Z,67.30
2018-06-29T07:30:05.687Z,67.30
2018-06-29T07:31:05.558Z,67.49
2018-06-29T07:32:05.500Z,66.82
2018-06-29T07:33:05.445Z,66.75
2018-06-29T07:34:05.392Z,66.95
2018-06-29T07:35:05.338Z,66.56
2018-06-29T07:36:05.272Z,66.47
2018-06-29T07:37:05.215Z,65.98
2018-06-29T07:38:05.161Z,66.08
2018-06-29T07:39:05.103Z,66.17
2018-06-29T07:40:05.041Z,66.37
2018-06-29T07:41:04.988Z,66.27
2018-06-29T07:42:04.938Z,66.08
2018-06-29T07:43:04.876Z,66.08
2018-06-29T07:44:04.819Z,65.69
2018-06-29T07:45:04.764Z,65.79
2018-06-29T07:46:04.719Z,65.30
2018-06-29T07:47:04.647Z,65.43
2018-06-29T07:48:04.593Z,64.95
2018-06-29T07:49:04.533Z,64.62
2018-06-29T07:50:04.480Z,65.14
2018-06-29T07:51:04.426Z,64.66
2018-06-29T07:52:04.373Z,64.47
2018-06-29T07:53:04.315Z,64.17
2018-06-29T07:54:04.256Z,64.56
2018-06-29T07:55:04.193Z,64.95
2018-06-29T07:56:04.144Z,63.98
2018-06-29T07:57:04.109Z,63.79
2018-06-29T07:58:04.041Z,64.27
2018-06-29T07:59:03.979Z,64.07
2018-06-29T08:00:03.912Z,63.82
2018-06-29T08:01:03.862Z,63.69
2018-06-29T08:02:03.801Z,63.31
2018-06-29T08:03:03.750Z,63.79
2018-06-29T08:04:03.689Z,63.69
2018-06-29T08:05:03.633Z,63.40
2018-06-29T08:06:03.579Z,63.40
2018-06-29T08:07:03.516Z,63.69
2018-06-29T08:08:03.460Z,63.49
2018-06-29T08:09:03.406Z,63.31
2018-06-29T08:10:03.351Z,63.01
2018-06-29T08:11:03.295Z,63.04
2018-06-29T08:12:03.240Z,62.46
2018-06-29T08:13:03.175Z,62.27
2018-06-29T08:14:03.149Z,62.07
2018-06-29T08:15:03.069Z,62.27
2018-06-29T08:16:03.015Z,61.49
2018-06-29T08:17:02.959Z,61.79
2018-06-29T08:18:02.906Z,61.59
2018-06-29T08:19:02.845Z,61.40
2018-06-29T08:20:02.789Z,62.17
2018-06-29T08:21:02.729Z,61.88
2018-06-29T08:22:02.675Z,61.79
2018-06-29T08:23:02.621Z,61.01
2018-06-29T08:24:02.567Z,61.30
2018-06-29T08:25:02.507Z,61.11
2018-06-29T08:26:02.445Z,60.72
2018-06-29T08:27:02.393Z,60.43
2018-06-29T08:28:02.340Z,60.33
2018-06-29T08:29:02.282Z,59.66
2018-06-29T08:30:02.224Z,60.17
2018-06-29T08:31:02.171Z,60.36
2018-06-29T08:32:02.118Z,59.94
2018-06-29T08:33:02.057Z,59.36
2018-06-29T08:34:02.002Z,59.39
2018-06-29T08:35:01.946Z,59.39
2018-06-29T08:36:01.891Z,59.00
2018-06-29T08:37:01.840Z,58.91
2018-06-29T08:38:01.779Z,59.10
2018-06-29T08:39:01.718Z,58.91
2018-06-29T08:40:01.661Z,58.52
2018-06-29T08:41:01.608Z,58.52
2018-06-29T08:42:01.554Z,57.84
2018-06-29T08:43:01.498Z,57.55
2018-06-29T08:44:01.441Z,57.45
2018-06-29T08:45:01.386Z,57.17
2018-06-29T08:46:01.329Z,57.17
2018-06-29T08:47:01.303Z,57.26
2018-06-29T08:48:01.216Z,57.45
2018-06-29T08:49:01.159Z,57.26
2018-06-29T08:50:01.114Z,56.29
2018-06-29T08:51:01.043Z,56.20
2018-06-29T08:52:00.991Z,56.39
2018-06-29T08:53:00.944Z,56.20
2018-06-29T08:54:00.888Z,56.23
2018-06-29T08:55:00.887Z,55.71
2018-06-29T08:56:00.770Z,55.81
2018-06-29T08:57:00.711Z,55.83
2018-06-29T08:58:00.655Z,55.54
2018-06-29T08:59:00.597Z,55.54
2018-06-29T09:00:00.563Z,55.44
2018-06-29T09:01:00.492Z,55.26
2018-06-29T09:02:00.430Z,55.26
2018-06-29T09:03:00.377Z,55.35
2018-06-29T09:04:00.320Z,55.44
2018-06-29T09:05:00.329Z,55.26
2018-06-29T09:06:00.207Z,54.67
2018-06-29T09:07:00.156Z,54.67
2018-06-29T09:08:00.097Z,54.19
2018-06-29T09:09:00.041Z,54.19
2018-06-29T09:09:59.984Z,54.38
2018-06-29T09:10:59.984Z,53.99
2018-06-29T09:11:59.872Z,53.92
2018-06-29T09:12:59.813Z,54.09
2018-06-29T09:13:59.762Z,53.92
2018-06-29T09:14:59.705Z,53.89
2018-06-29T09:15:59.676Z,54.28
2018-06-29T09:16:59.593Z,53.34
2018-06-29T09:17:59.541Z,53.15
2018-06-29T09:18:59.541Z,53.34
2018-06-29T09:19:59.445Z,52.76
2018-06-29T09:20:59.371Z,52.66
2018-06-29T09:21:59.316Z,51.69
2018-06-29T09:22:59.258Z,51.62
2018-06-29T09:23:59.201Z,51.40
2018-06-29T09:24:59.144Z,51.14
2018-06-29T09:25:59.094Z,50.94
2018-06-29T09:26:59.040Z,50.84
2018-06-29T09:27:58.987Z,50.65
2018-06-29T09:28:58.931Z,50.56
2018-06-29T09:29:58.893Z,50.26
2018-06-29T09:30:58.813Z,50.46
2018-06-29T09:31:58.762Z,50.46
2018-06-29T09:32:58.701Z,50.36
2018-06-29T09:33:58.676Z,50.16
2018-06-29T09:34:58.591Z,50.38
2018-06-29T09:35:58.540Z,49.97
2018-06-29T09:36:58.478Z,49.80
2018-06-29T09:37:58.430Z,49.61
2018-06-29T09:38:58.369Z,49.90
2018-06-29T09:39:58.318Z,49.71
2018-06-29T09:40:58.263Z,49.32
2018-06-29T09:41:58.205Z,49.71
2018-06-29T09:42:58.164Z,49.80
2018-06-29T09:43:58.095Z,49.61
2018-06-29T09:44:58.038Z,49.41
2018-06-29T09:45:57.987Z,49.41
2018-06-29T09:46:57.932Z,48.85
2018-06-29T09:47:57.960Z,48.83
2018-06-29T09:48:57.820Z,48.95
2018-06-29T09:49:57.763Z,48.47
2018-06-29T09:50:57.710Z,48.57
2018-06-29T09:51:57.657Z,48.47
2018-06-29T09:52:57.599Z,48.88
2018-06-29T09:53:57.579Z,48.10
2018-06-29T09:54:57.488Z,48.20
2018-06-29T09:55:57.442Z,48.68
2018-06-29T09:56:57.383Z,48.78
2018-06-29T09:57:57.324Z,48.20
2018-06-29T09:58:57.271Z,47.81
2018-06-29T09:59:57.211Z,48.10
2018-06-29T10:00:57.191Z,48.10
2018-06-29T10:01:57.102Z,48.58
2018-06-29T10:02:57.048Z,48.37
2018-06-29T10:03:56.995Z,49.05
2018-06-29T10:04:56.938Z,48.85
2018-06-29T10:05:56.889Z,48.85
2018-06-29T10:06:56.838Z,49.02
2018-06-29T10:07:56.772Z,49.12
2018-06-29T10:08:56.728Z,49.51
2018-06-29T10:09:56.681Z,49.68
2018-06-29T10:10:56.635Z,50.07
2018-06-29T10:11:56.577Z,50.16
2018-06-29T10:12:56.542Z,50.46
2018-06-29T10:13:56.449Z,50.36
2018-06-29T10:14:56.392Z,50.46
2018-06-29T10:15:56.348Z,50.26
2018-06-29T10:16:56.310Z,49.68
2018-06-29T10:17:56.235Z,49.51
2018-06-29T10:18:56.191Z,49.51
2018-06-29T10:19:56.235Z,49.51
2018-06-29T10:20:56.076Z,49.68
2018-06-29T10:21:56.026Z,50.48
2018-06-29T10:22:55.963Z,50.58
2018-06-29T10:23:55.904Z,49.51
2018-06-29T10:24:55.858Z,49.71
2018-06-29T10:25:55.826Z,49.61
2018-06-29T10:26:55.732Z,49.71
2018-06-29T10:27:55.793Z,49.44
2018-06-29T10:28:55.646Z,49.24
2018-06-29T10:29:55.570Z,49.15
2018-06-29T10:30:55.600Z,49.05
2018-06-29T10:31:55.460Z,48.66
2018-06-29T10:32:55.407Z,48.85
2018-06-29T10:33:55.361Z,47.71
2018-06-29T10:34:55.301Z,47.81
2018-06-29T10:35:55.325Z,47.42
2018-06-29T10:36:55.197Z,47.23
2018-06-29T10:37:55.173Z,47.54
2018-06-29T10:38:55.102Z,47.32
2018-06-29T10:39:55.026Z,47.42
2018-06-29T10:40:54.965Z,47.44
2018-06-29T10:41:54.914Z,46.77
2018-06-29T10:42:54.860Z,46.64
2018-06-29T10:43:54.841Z,47.44
2018-06-29T10:44:54.807Z,47.03
2018-06-29T10:45:54.765Z,47.52
2018-06-29T10:46:54.686Z,47.88
2018-06-29T10:47:54.591Z,48.10
2018-06-29T10:48:54.557Z,48.20
2018-06-29T10:49:54.476Z,48.08
2018-06-29T10:50:54.485Z,48.75
2018-06-29T10:51:54.400Z,48.57
2018-06-29T10:52:54.379Z,48.47
2018-06-29T10:53:54.291Z,48.66
2018-06-29T10:54:54.205Z,48.57
2018-06-29T10:55:54.204Z,48.47
2018-06-29T10:56:54.094Z,48.57
2018-06-29T10:57:54.043Z,48.64
2018-06-29T10:59:01.782Z,48.93
2018-06-29T11:00:48.314Z,48.85
2018-06-29T11:01:48.243Z,48.47
2018-06-29T11:03:42.524Z,47.71
2018-06-29T11:04:42.434Z,47.61
2018-06-29T11:06:36.762Z,47.61
2018-06-29T11:07:36.679Z,47.52
2018-06-29T11:09:31.205Z,47.03
2018-06-29T11:10:30.951Z,46.74
2018-06-29T11:12:24.327Z,47.32
2018-06-29T11:13:24.197Z,46.96
2018-06-29T11:15:20.232Z,46.18
2018-06-29T11:16:19.265Z,45.91
2018-06-29T11:18:13.028Z,45.91
2018-06-29T11:19:13.901Z,45.81
2018-06-29T11:21:09.210Z,46.32
2018-06-29T11:22:15.918Z,45.74
2018-06-29T11:24:09.100Z,45.18
2018-06-29T11:25:00.510Z,45.47
2018-06-29T11:26:53.515Z,44.64
2018-06-29T11:27:53.336Z,43.95
2018-06-29T11:29:46.882Z,43.10
2018-06-29T11:30:55.459Z,42.93
2018-06-29T11:32:40.130Z,42.16
2018-06-29T11:33:48.359Z,42.07
2018-06-29T11:35:33.614Z,41.31
2018-06-29T11:36:33.179Z,41.41
2018-06-29T11:38:26.641Z,40.92
2018-06-29T11:39:34.359Z,41.02
2018-06-29T11:41:19.955Z,41.02
2018-06-29T11:42:19.632Z,41.21
2018-06-29T11:44:14.307Z,41.19
2018-06-29T11:45:13.851Z,41.27
2018-06-29T11:47:10.424Z,41.66
2018-06-29T11:48:08.170Z,41.35
2018-06-29T11:50:03.394Z,41.71
2018-06-29T11:51:03.282Z,42.08
2018-06-29T11:52:03.115Z,42.18
2018-06-29T11:53:02.340Z,42.25
2018-06-29T11:54:03.468Z,42.25
2018-06-29T11:55:01.309Z,42.16
2018-06-29T11:56:01.263Z,42.16
2018-06-29T11:57:01.230Z,42.18
2018-06-29T11:58:01.179Z,41.99
2018-06-29T11:59:03.053Z,42.30
2018-06-29T12:00:01.129Z,41.71
2018-06-29T12:01:01.023Z,41.42
2018-06-29T12:02:01.009Z,41.52
2018-06-29T12:03:00.935Z,41.42
2018-06-29T12:04:00.915Z,42.10
2018-06-29T12:05:00.839Z,42.10
2018-06-29T12:06:00.833Z,42.30
2018-06-29T12:07:00.757Z,41.54
2018-06-29T12:08:00.751Z,41.07
2018-06-29T12:09:00.665Z,41.36
2018-06-29T12:10:00.636Z,41.36
2018-06-29T12:11:00.576Z,41.27
2018-06-29T12:12:00.560Z,41.27
2018-06-29T12:13:00.487Z,40.99
2018-06-29T12:14:00.444Z,41.19
2018-06-29T12:15:00.443Z,40.92
2018-06-29T12:16:00.374Z,40.53
2018-06-29T12:17:00.316Z,39.86
2018-06-29T12:18:00.269Z,39.49
2018-06-29T12:19:00.229Z,39.00
2018-06-29T12:20:00.190Z,39.18
2018-06-29T12:21:00.153Z,38.81
2018-06-29T12:22:00.098Z,38.32
2018-06-29T12:23:00.059Z,37.95
2018-06-29T12:24:00.017Z,37.45
2018-06-29T12:24:59.975Z,37.37
2018-06-29T12:25:59.940Z,36.98
2018-06-29T12:26:59.888Z,37.18
2018-06-29T12:27:59.920Z,37.08
2018-06-29T12:28:59.808Z,36.69
2018-06-29T12:29:59.764Z,36.79
2018-06-29T12:30:59.901Z,36.79
2018-06-29T12:32:01.530Z,36.10
2018-06-29T12:32:59.641Z,36.30
2018-06-29T12:33:59.601Z,35.63
2018-06-29T12:34:59.557Z,35.14
2018-06-29T12:35:59.517Z,35.44
2018-06-29T12:36:59.477Z,35.34
2018-06-29T12:37:59.460Z,34.96
2018-06-29T12:38:59.411Z,34.57
2018-06-29T12:39:59.358Z,34.67
2018-06-29T12:40:59.314Z,34.49
2018-06-29T12:41:59.275Z,34.20
2018-06-29T12:42:59.236Z,34.20
2018-06-29T12:43:59.195Z,34.00
2018-06-29T12:44:59.153Z,33.90
2018-06-29T12:45:59.130Z,33.61
2018-06-29T12:46:59.079Z,33.14
2018-06-29T12:47:59.035Z,33.33
2018-06-29T12:48:58.999Z,33.41
2018-06-29T12:49:58.959Z,33.31
2018-06-29T12:50:58.918Z,33.02
2018-06-29T12:51:58.877Z,32.64
2018-06-29T12:52:58.841Z,32.64
2018-06-29T12:53:58.874Z,32.35
2018-06-29T12:54:58.761Z,32.17
2018-06-29T12:55:58.725Z,32.27
2018-06-29T12:56:58.683Z,31.70
2018-06-29T12:57:58.644Z,32.18
2018-06-29T12:58:58.604Z,31.99
2018-06-29T12:59:58.587Z,31.60
2018-06-29T13:00:58.549Z,31.50
2018-06-29T13:01:58.486Z,31.40
2018-06-29T13:02:58.454Z,31.67
2018-06-29T13:03:58.418Z,31.67
2018-06-29T13:04:58.371Z,31.68
2018-06-29T13:05:58.337Z,31.40
2018-06-29T13:06:58.295Z,31.10
2018-06-29T13:07:58.264Z,30.73